KEOK/EOK METAR and TAF weather

Enter ICAO airport designator
Station Type Date Time Source
KEOK METAR 2022/06/28 16:15 UTC NOAA

KEOK 281615Z AUTO 23007G14KT 10SM CLR 25/15 A3025 RMK A01


Station Type Date Time Source
KEOK Decoded METAR 2022/06/28 16:15 UTC NOAA

Keokuk Municipal, IA, United States (KEOK) 40-28N 091-26W
Jun 28, 2022 - 12:15 PM EDT / 2022.06.28 1615 UTC
Wind: from the SW (230 degrees) at 8 MPH (7 KT) gusting to 16 MPH (14 KT):0
Visibility: 10 mile(s):0
Sky conditions: clear
Temperature: 77 F (25 C)
Dew Point: 59 F (15 C)
Relative Humidity: 53%
Pressure (altimeter): 30.25 in. Hg (1024 hPa)
ob: KEOK 281615Z AUTO 23007G14KT 10SM CLR 25/15 A3025 RMK A01
cycle: 16

Station Type Date Time Source
KEOK TAF UTC NOAA

Error!

Example: see airport list